2004 IVY (2004052S15172)


On this page: IBTrACS data - Map and Plots - Positions - Intensities - Original source data

Summary

Start Feb 21
End Mar 2
Basin SP
LMI 105 kt
Sources jtwc_sh
nadi
wellington
neumann
In WMO? Yes
Previous storm 2004 TD0214 (WP)
Previous in basin 2004 FRITZ (SP)
Concurrent storms 2004 IVY (SP)
2004 MONTY (SI)
2004 EVAN (SP)
2004 GAFILO (SI)
Next in basin 2004 EVAN (SP)
Next storm 2004 MONTY (SI)

top of page IBTrACS Data: File Access

top of page HURSAT Data: File Access

Image of storm

top of page Plots:

Map of storm track will not appear if FTP is down
Time series of cyclone Maximum Sustained Wind will not appear if FTP is down
Time series of cyclone Minimum Central Pressure will not appear if FTP is down

top of page Track Data:Position

jtwc_sh nadi wellington neumann
Date Lat Lon Lat Lon Lat Lon Lat Lon
2004-02-21 00:00:00 -15.4 172.2 -15.4 172.2
2004-02-21 06:00:00 -15.8 172.0 -15.8 172.0
2004-02-21 12:00:00 -16.1 172.2 -16.2 173.0 -16.2 173.0 -16.1 172.2
2004-02-21 18:00:00 -16.4 172.7 -16.2 173.2 -16.2 173.2 -16.4 172.7
2004-02-22 00:00:00 -16.3 173.3 -16.1 173.4 -16.1 173.4 -16.3 173.3
2004-02-22 06:00:00 -16.1 173.8 -16.0 173.6 -16.0 173.6 -16.1 173.8
2004-02-22 12:00:00 -15.5 173.8 -15.6 173.5 -15.6 173.5 -15.5 173.8
2004-02-22 18:00:00 -15.1 173.3 -15.3 173.2 -15.3 173.2 -15.1 173.3
2004-02-23 00:00:00 -14.7 172.5 -15.1 172.9 -15.1 172.9 -14.7 172.5
2004-02-23 06:00:00 -14.3 171.7 -14.9 171.8 -14.9 171.8 -14.3 171.7
2004-02-23 12:00:00 -13.9 171.0 -14.5 170.8 -14.5 170.8 -13.9 171.0
2004-02-23 18:00:00 -13.6 170.3 -13.8 170.3 -13.8 170.3 -13.6 170.3
2004-02-24 00:00:00 -13.4 169.6 -13.5 169.7 -13.5 169.7 -13.4 169.6
2004-02-24 06:00:00 -13.7 169.1 -13.4 168.9 -13.4 168.9 -13.7 169.1
2004-02-24 12:00:00 -14.0 168.7 -14.2 168.8 -14.2 168.8 -14.0 168.7
2004-02-24 18:00:00 -14.4 168.3 -14.6 168.6 -14.6 168.6 -14.4 168.3
2004-02-25 00:00:00 -14.9 167.9 -14.8 168.1 -14.8 168.1 -14.9 167.9
2004-02-25 06:00:00 -15.4 167.7 -15.7 167.7 -15.7 167.7 -15.4 167.7
2004-02-25 12:00:00 -15.9 167.7 -16.0 167.7 -16.0 167.7 -15.9 167.7
2004-02-25 18:00:00 -16.4 167.8 -16.3 167.8 -16.3 167.8 -16.4 167.8
2004-02-26 00:00:00 -17.0 168.0 -17.1 168.1 -17.1 168.1 -17.0 168.0
2004-02-26 06:00:00 -17.7 168.3 -17.7 168.3 -17.7 168.3 -17.7 168.3
2004-02-26 12:00:00 -18.6 168.6 -18.5 168.6 -18.5 168.6 -18.6 168.6
2004-02-26 18:00:00 -19.3 168.9 -19.3 168.8 -19.3 168.8 -19.3 168.9
2004-02-27 00:00:00 -20.1 169.1 -20.3 169.1 -20.3 169.1 -20.1 169.1
jtwc_sh nadi wellington neumann
2004-02-27 06:00:00 -21.3 169.4 -21.5 169.4 -21.5 169.4 -21.3 169.4
2004-02-27 12:00:00 -22.6 169.9 -22.7 169.9 -22.7 169.9 -22.6 169.9
2004-02-27 18:00:00 -24.3 170.7 -24.5 170.7 -24.5 170.7 -24.3 170.7
2004-02-28 00:00:00 -26.3 171.9 -26.6 171.8 -26.6 171.8 -26.3 171.9
2004-02-28 06:00:00 -28.7 173.1 -28.6 172.9 -28.6 172.9 -28.7 173.1
2004-02-28 12:00:00 -31.1 174.7 -31.1 174.8 -31.1 174.8 -31.1 174.7
2004-02-28 18:00:00 -34.4 176.9 -33.8 176.5 -33.8 176.5 -34.4 176.9
2004-02-29 00:00:00 -37.1 179.0 -36.7 178.5 -36.7 178.5 -37.1 179.0
2004-02-29 06:00:00 -40.3 -178.2 -40.0 181.0 -40.0 181.0 -40.3 -178.2
2004-02-29 12:00:00 -43.3 184.0 -43.3 184.0
2004-02-29 18:00:00 -47.0 187.5 -47.0 187.5
2004-03-01 00:00:00 -49.0 188.0 -49.0 188.0
2004-03-01 06:00:00 -50.0 188.5 -50.0 188.5
2004-03-01 12:00:00 -51.0 188.8 -51.0 188.8
2004-03-01 18:00:00 -52.0 190.0 -52.0 190.0
2004-03-02 00:00:00 -53.5 192.5 -53.5 192.5

top of pageTrack Data:Intensity

jtwc_sh nadi wellington neumann
Date Wind Pres Wind Pres Wind Pres Wind Pres
2004-02-21 00:00:00 20. 1004. 20.
2004-02-21 06:00:00 20. 1004. 20.
2004-02-21 12:00:00 20. 1004. 25. 999. 25. 999. 20.
2004-02-21 18:00:00 25. 1002. 25. 999. 25. 999. 25.
2004-02-22 00:00:00 30. 1000. 25. 999. 25. 999. 30.
2004-02-22 06:00:00 25. 1002. 25. 999. 25. 999. 25.
2004-02-22 12:00:00 30. 1000. 25. 999. 25. 999. 30.
2004-02-22 18:00:00 35. 997. 30. 997. 30. 997. 35.
2004-02-23 00:00:00 40. 994. 30. 997. 30. 997. 40.
2004-02-23 06:00:00 45. 991. 35. 995. 35. 995. 45.
2004-02-23 12:00:00 55. 984. 50. 985. 50. 985. 55.
2004-02-23 18:00:00 70. 972. 60. 975. 60. 975. 70.
2004-02-24 00:00:00 75. 967. 60. 975. 60. 975. 75.
2004-02-24 06:00:00 75. 967. 65. 970. 65. 970. 75.
2004-02-24 12:00:00 90. 954. 65. 970. 65. 970. 90.
2004-02-24 18:00:00 85. 954. 70. 965. 70. 965. 85.
2004-02-25 00:00:00 85. 958. 75. 960. 75. 960. 85.
2004-02-25 06:00:00 90. 954. 80. 955. 80. 955. 90.
2004-02-25 12:00:00 95. 949. 80. 950. 80. 950. 95.
2004-02-25 18:00:00 105. 938. 90. 940. 90. 940. 105.
2004-02-26 00:00:00 105. 938. 90. 935. 90. 935. 105.
2004-02-26 06:00:00 100. 944. 90. 935. 90. 935. 100.
2004-02-26 12:00:00 100. 944. 90. 940. 90. 940. 100.
2004-02-26 18:00:00 105. 938. 90. 940. 90. 940. 105.
2004-02-27 00:00:00 100. 944. 90. 940. 90. 940. 100.
jtwc_sh nadi wellington neumann
2004-02-27 06:00:00 100. 944. 90. 940. 90. 940. 100.
2004-02-27 12:00:00 100. 944. 90. 940. 90. 940. 100.
2004-02-27 18:00:00 100. 944. 85. 945. 85. 945. 100.
2004-02-28 00:00:00 90. 954. 80. 950. 80. 950. 90.
2004-02-28 06:00:00 85. 958. 75. 960. 75. 960. 85.
2004-02-28 12:00:00 75. 967. 65. 970. 65. 970. 75.
2004-02-28 18:00:00 55. 984. 60. 992. 60. 992. 55.
2004-02-29 00:00:00 50. 987. 60. 976. 60. 976. 50.
2004-02-29 06:00:00 45. 991. 55. 976. 55. 976. 45.
2004-02-29 12:00:00 55. 976. 55. 976.
2004-02-29 18:00:00 50. 979. 50. 979.
2004-03-01 00:00:00 50. 979. 50. 979.
2004-03-01 06:00:00 45. 980. 45. 980.
2004-03-01 12:00:00 40. 980. 40. 980.
2004-03-01 18:00:00 40. 987. 40. 987.
2004-03-02 00:00:00 40. 991. 40. 991.

top of page Links to source data

Source Source file Format
jtwc_sh bsh132004.txt ATCF
nadi RSMC-Nadi-2003-04-BT-Data.txt:Line=89:IVY Text table
wellington TC_BT_1967_2006.csv:Line=7536:IVY Text table
neumann tracks.sh:Storm=1292:IVY:BSH132004:JTWC HURDAT